createdAt,value
2022-12-05T00:07:10.843Z,27.1
2022-12-05T00:12:33.471Z,25.8
2022-12-05T00:17:56.655Z,24.6
2022-12-05T00:23:34.393Z,23.7
2022-12-05T00:29:11.653Z,22.9
2022-12-05T00:34:34.077Z,24.2
2022-12-05T00:40:10.509Z,27.6
2022-12-05T00:45:56.207Z,28.2
2022-12-05T00:51:19.301Z,27.4
2022-12-05T00:56:56.525Z,25.1
2022-12-05T01:02:35.097Z,23.9
2022-12-05T01:07:58.072Z,23
2022-12-05T01:13:23.727Z,24.3
2022-12-05T01:18:46.455Z,27.5
2022-12-05T01:24:24.412Z,28.2
2022-12-05T01:29:47.151Z,27.4
2022-12-05T01:35:25.547Z,25.3
2022-12-05T01:40:48.071Z,23.9
2022-12-05T01:46:14.709Z,23.1
2022-12-05T01:51:37.658Z,22.4
2022-12-05T01:57:00.118Z,24.6
2022-12-05T02:02:38.241Z,27.7
2022-12-05T02:08:01.512Z,28.1
2022-12-05T02:13:24.488Z,27.3
2022-12-05T02:18:48.531Z,25
2022-12-05T02:24:26.193Z,23.7
2022-12-05T02:30:03.758Z,22.9
2022-12-05T02:35:25.162Z,24
2022-12-05T02:41:03.401Z,27.3
2022-12-05T02:46:41.350Z,28.4
2022-12-05T02:52:18.753Z,27.4
2022-12-05T02:57:56.639Z,25.3
2022-12-05T03:03:34.397Z,23.8
2022-12-05T03:09:12.491Z,22.9
2022-12-05T03:14:35.105Z,24.3
2022-12-05T03:20:13.441Z,27.4
2022-12-05T03:25:51.045Z,28.4
2022-12-05T03:31:14.237Z,27.4
2022-12-05T03:36:51.181Z,25.2
2022-12-05T03:42:13.943Z,23.7
2022-12-05T03:47:53.128Z,22.9
2022-12-05T03:53:50.349Z,23.6
2022-12-05T03:59:27.475Z,27.3
2022-12-05T04:04:51.092Z,28.7
2022-12-05T04:10:29.397Z,27.6
2022-12-05T04:16:06.915Z,25.3
2022-12-05T04:21:46.521Z,23.8
2022-12-05T04:26:53.688Z,22.9
2022-12-05T04:32:16.486Z,22.3
2022-12-05T04:37:39.374Z,24.8
2022-12-05T04:42:51.755Z,27.5
2022-12-05T04:47:42.866Z,28.6
2022-12-05T04:53:11.563Z,27.6
2022-12-05T04:58:55.076Z,25.6
2022-12-05T05:04:32.753Z,23.8
2022-12-05T05:10:17.195Z,22.8
2022-12-05T05:15:55.551Z,22.1
2022-12-05T05:21:33.329Z,25.7
2022-12-05T05:27:14.106Z,27
2022-12-05T05:32:36.205Z,26.3
2022-12-05T05:38:19.041Z,24.2
2022-12-05T05:44:03.797Z,22.9
2022-12-05T05:49:41.520Z,22.2
2022-12-05T05:55:25.806Z,21.6
2022-12-05T06:06:26.194Z,24.6
2022-12-05T06:12:04.551Z,27.4
2022-12-05T06:17:42.844Z,26.8
2022-12-05T06:23:27.153Z,25.3
2022-12-05T06:29:04.338Z,23.3
2022-12-05T06:34:47.386Z,22.3
2022-12-05T06:40:24.848Z,21.7
2022-12-05T06:46:02.612Z,21.2
2022-12-05T06:51:30.194Z,23.6
2022-12-05T06:57:07.702Z,26.7
2022-12-05T07:02:47.030Z,26.9
2022-12-05T07:08:31.111Z,26
2022-12-05T07:14:14.790Z,23.6
2022-12-05T07:20:13.436Z,22.4
2022-12-05T07:26:24.813Z,21.7
2022-12-05T07:37:32.133Z,22.4
2022-12-05T07:43:11.347Z,26.2
2022-12-05T07:48:51.818Z,27.1
2022-12-05T07:54:29.107Z,26.3
2022-12-05T08:00:08.269Z,24.9
2022-12-05T08:05:51.612Z,23.7
2022-12-05T08:11:29.265Z,22.8
2022-12-05T08:17:13.315Z,21.9
2022-12-05T08:22:38.434Z,23.5
2022-12-05T08:28:16.329Z,26.4
2022-12-05T08:33:39.087Z,26.9
2022-12-05T08:39:20.580Z,26.1
2022-12-05T08:45:00.385Z,24.8
2022-12-05T08:50:43.248Z,23.6
2022-12-05T08:56:26.477Z,22.6
2022-12-05T09:02:09.288Z,21.8
2022-12-05T09:08:13.912Z,25.3
2022-12-05T09:13:51.796Z,27.7
2022-12-05T09:19:32.082Z,26.6
2022-12-05T09:25:14.089Z,25.4
2022-12-05T09:30:57.534Z,24.1
2022-12-05T09:36:35.262Z,23
2022-12-05T09:42:42.204Z,22.1
2022-12-05T09:48:21.415Z,23.1
2022-12-05T09:54:03.467Z,26.3
2022-12-05T09:59:47.770Z,27.1
2022-12-05T10:05:33.123Z,26.1
2022-12-05T10:11:11.485Z,24.7
2022-12-05T10:16:52.975Z,23.4
2022-12-05T10:22:36.783Z,22.5
2022-12-05T10:28:46.957Z,21.6
2022-12-05T10:34:33.273Z,24
2022-12-05T10:40:18.143Z,26.8
2022-12-05T10:45:54.784Z,26.6
2022-12-05T10:51:38.646Z,25.7
2022-12-05T10:57:52.243Z,24.3
2022-12-05T11:03:42.761Z,23.1
2022-12-05T11:09:53.218Z,22.2
2022-12-05T11:15:32.261Z,24.6
2022-12-05T11:21:16.951Z,27.2
2022-12-05T11:26:58.463Z,26.7
2022-12-05T11:32:40.911Z,25.6
2022-12-05T11:38:19.606Z,24.3
2022-12-05T11:43:49.224Z,23.1
2022-12-05T11:49:15.058Z,22.3
2022-12-05T11:55:29.381Z,23
2022-12-05T12:01:12.249Z,26.6
2022-12-05T12:06:54.217Z,26.9
2022-12-05T12:12:37.639Z,26.1
2022-12-05T12:18:22.334Z,24.6
2022-12-05T12:24:05.629Z,23.4
2022-12-05T12:29:45.966Z,22.4
2022-12-05T12:35:10.032Z,23.3
2022-12-05T12:40:49.280Z,26.3
2022-12-05T12:47:01.769Z,27.1
2022-12-05T12:52:41.723Z,26.1
2022-12-05T12:58:59.112Z,24.8
2022-12-05T13:04:42.103Z,23.4
2022-12-05T13:10:24.809Z,22.6
2022-12-05T13:15:47.911Z,21.6
2022-12-05T13:21:14.398Z,21.1
2022-12-05T13:26:57.326Z,20.8
2022-12-05T13:32:28.089Z,20.9
2022-12-05T13:38:10.482Z,20.7
2022-12-05T13:43:56.669Z,20.4
2022-12-05T13:49:48.863Z,20.1
2022-12-05T13:55:29.628Z,19.6
2022-12-05T14:01:10.816Z,19.3
2022-12-05T14:06:53.815Z,19.4
2022-12-05T14:12:31.564Z,19.4
2022-12-05T14:18:14.854Z,19.3
2022-12-05T14:23:59.581Z,19.1
2022-12-05T14:29:50.568Z,18.9
2022-12-05T14:35:29.269Z,18.6
2022-12-05T14:41:10.369Z,18.5
2022-12-05T14:57:55.373Z,18.6
2022-12-05T15:03:35.597Z,18.4
2022-12-05T15:09:51.614Z,18.3
2022-12-05T15:15:30.659Z,18.1
2022-12-05T15:21:13.456Z,18.1
2022-12-05T15:27:22.439Z,18.4
2022-12-05T15:32:45.257Z,18.4
2022-12-05T15:38:27.192Z,18.2
2022-12-05T15:44:10.457Z,18.1
2022-12-05T15:49:52.066Z,17.8
2022-12-05T15:55:36.006Z,17.7
2022-12-05T16:01:17.239Z,17.9
2022-12-05T16:07:00.072Z,18
2022-12-05T16:12:43.406Z,18
2022-12-05T16:18:56.273Z,17.9
2022-12-05T16:24:24.791Z,17.8
2022-12-05T16:30:02.496Z,17.7
2022-12-05T16:35:41.688Z,17.7
2022-12-05T16:41:19.915Z,17.9
2022-12-05T16:47:05.590Z,17.9
2022-12-05T16:52:49.605Z,17.8
2022-12-05T16:57:56.565Z,17.8
2022-12-05T17:03:49.541Z,17.6
2022-12-05T17:09:31.959Z,17.5
2022-12-05T17:15:12.706Z,17.6
2022-12-05T17:20:41.753Z,17.9
2022-12-05T17:26:20.043Z,17.9
2022-12-05T17:31:33.124Z,17.9
2022-12-05T17:37:11.191Z,17.8
2022-12-05T17:42:49.904Z,17.7
2022-12-05T17:48:31.821Z,17.5
2022-12-05T17:54:20.539Z,17.6
2022-12-05T17:59:42.088Z,17.9
2022-12-05T18:05:09.239Z,17.8
2022-12-05T18:10:31.821Z,17.8
2022-12-05T18:15:59.079Z,17.7
2022-12-05T18:20:51.236Z,17.6
2022-12-05T18:25:59.958Z,17.5
2022-12-05T18:31:41.120Z,17.6
2022-12-05T18:37:10.313Z,17.8
2022-12-05T18:42:48.396Z,17.8
2022-12-05T18:48:38.666Z,17.8
2022-12-05T18:54:20.894Z,17.7
2022-12-05T19:01:03.912Z,17.6
2022-12-05T19:06:46.013Z,17.5
2022-12-05T19:12:24.573Z,17.8
2022-12-05T19:17:33.794Z,17.8
2022-12-05T19:22:41.324Z,17.8
2022-12-05T19:28:22.712Z,17.7
2022-12-05T19:34:04.557Z,17.6
2022-12-05T19:39:12.657Z,17.4
2022-12-05T19:44:52.142Z,17.6
2022-12-05T19:50:21.017Z,17.8
2022-12-05T19:55:59.855Z,17.8
2022-12-05T20:01:42.074Z,17.7
2022-12-05T20:07:09.335Z,17.6
2022-12-05T20:12:32.971Z,17.4
2022-12-05T20:18:28.693Z,17.4
2022-12-05T20:23:51.998Z,17.6
2022-12-05T20:29:30.750Z,17.6
2022-12-05T20:35:08.695Z,17.6
2022-12-05T20:40:34.787Z,17.5
2022-12-05T20:46:15.256Z,17.4
2022-12-05T20:51:53.333Z,17.3
2022-12-05T20:57:31.328Z,17.4
2022-12-05T21:03:14.202Z,17.6
2022-12-05T21:08:55.089Z,17.6
2022-12-05T21:14:35.248Z,17.4
2022-12-05T21:20:14.570Z,17.4
2022-12-05T21:25:52.198Z,17.3
2022-12-05T21:31:30.359Z,17.2
2022-12-05T21:36:53.100Z,17.1
2022-12-05T21:42:16.928Z,17.1
2022-12-05T21:47:36.276Z,17.3
2022-12-05T21:53:14.562Z,17.5
2022-12-05T21:58:58.671Z,17.4
2022-12-05T22:04:21.393Z,17.4
2022-12-05T22:10:04.070Z,17.3
2022-12-05T22:15:41.880Z,17.4
2022-12-05T22:21:20.984Z,17.5
2022-12-05T22:26:59.243Z,17.6
2022-12-05T22:32:39.661Z,17.6
2022-12-05T22:38:08.047Z,17.4
2022-12-05T22:43:45.837Z,17.4
2022-12-05T22:49:25.155Z,17.3
2022-12-05T22:55:03.599Z,17.1
2022-12-05T23:00:41.590Z,17.3
2022-12-05T23:06:24.747Z,17.5
2022-12-05T23:12:02.332Z,17.6
2022-12-05T23:17:41.282Z,17.5
2022-12-05T23:23:19.935Z,17.4
2022-12-05T23:28:57.862Z,17.3
2022-12-05T23:34:37.885Z,17.2
2022-12-05T23:40:16.270Z,17.1
2022-12-05T23:45:53.860Z,17.4
2022-12-05T23:51:33.708Z,17.6
2022-12-05T23:57:14.710Z,17.6
